Time;durP1;ratioP1;P1;durP2;ratioP2;P2;SDS_P1;SDS_P2;PMS_P1;PMS_P2;Temp;Humidity;BMP_temperature;BMP_pressure;BME280_temperature;BME280_humidity;BME280_pressure;Samples;Min_cycle;Max_cycle;Signal;HPM_P1;HPM_P2
2022/05/31 00:01:23;;;;;;;1.60;1.60;;;;;;;;;;4944372;29;20333;-62
2022/05/31 00:04:10;;;;;;;1.67;1.20;;;;;;;;;;4946857;28;20851;-62
2022/05/31 00:06:57;;;;;;;1.53;1.50;;;;;;;;;;4942991;29;20219;-62
2022/05/31 00:09:45;;;;;;;1.40;1.40;;;;;;;;;;4942108;29;20277;-62
2022/05/31 00:12:33;;;;;;;1.43;1.43;;;;;;;;;;4941962;29;20222;-62
2022/05/31 00:15:22;;;;;;;1.00;1.00;;;;;;;;;;4947211;28;20286;-61
2022/05/31 00:18:09;;;;;;;1.90;1.60;;;;;;;;;;4939850;29;20606;-62
2022/05/31 00:20:56;;;;;;;1.17;1.17;;;;;;;;;;4937273;28;20208;-62
2022/05/31 00:23:44;;;;;;;1.13;1.13;;;;;;;;;;4939492;28;20361;-62
2022/05/31 00:26:31;;;;;;;1.13;1.13;;;;;;;;;;4940956;28;20348;-62
2022/05/31 00:29:19;;;;;;;1.33;1.33;;;;;;;;;;4945908;29;20273;-62
2022/05/31 00:32:08;;;;;;;1.47;1.47;;;;;;;;;;4942439;28;20274;-61
2022/05/31 00:34:59;;;;;;;1.50;1.50;;;;;;;;;;4946832;28;20203;-62
2022/05/31 00:37:46;;;;;;;1.23;1.23;;;;;;;;;;4940442;28;20297;-62
2022/05/31 00:40:35;;;;;;;1.83;1.80;;;;;;;;;;4944921;28;20284;-62
2022/05/31 00:43:25;;;;;;;1.23;1.23;;;;;;;;;;4944495;28;20230;-62
2022/05/31 00:46:13;;;;;;;1.37;1.37;;;;;;;;;;4944028;29;20948;-62
2022/05/31 00:49:06;;;;;;;1.50;1.50;;;;;;;;;;4936047;29;20301;-61
2022/05/31 00:51:56;;;;;;;1.33;1.33;;;;;;;;;;4945237;29;20344;-62
2022/05/31 00:54:47;;;;;;;1.50;1.40;;;;;;;;;;4943177;29;20211;-62
2022/05/31 00:57:37;;;;;;;1.50;1.50;;;;;;;;;;4941757;28;20221;-61
2022/05/31 01:00:26;;;;;;;1.50;1.40;;;;;;;;;;4943541;29;20226;-61
2022/05/31 01:03:18;;;;;;;1.40;1.40;;;;;;;;;;4948412;28;20243;-57
2022/05/31 01:06:06;;;;;;;1.53;1.53;;;;;;;;;;4941249;28;20220;-58
2022/05/31 01:08:56;;;;;;;1.40;1.40;;;;;;;;;;4940881;28;20205;-58
2022/05/31 01:11:44;;;;;;;1.50;1.47;;;;;;;;;;4947324;28;20714;-58
2022/05/31 01:14:32;;;;;;;1.40;1.40;;;;;;;;;;4947688;28;20291;-57
2022/05/31 01:17:20;;;;;;;1.40;1.40;;;;;;;;;;4947632;28;20345;-58
2022/05/31 01:20:10;;;;;;;1.60;1.50;;;;;;;;;;4944855;29;20693;-58
2022/05/31 01:23:03;;;;;;;1.47;1.47;;;;;;;;;;4941388;28;20210;-58
2022/05/31 01:25:59;;;;;;;1.50;1.50;;;;;;;;;;4940570;28;20211;-57
2022/05/31 01:29:06;;;;;;;1.40;1.40;;;;;;;;;;4938188;29;20678;-57
2022/05/31 01:31:59;;;;;;;1.63;1.53;;;;;;;;;;4938770;29;20355;-57
2022/05/31 01:34:53;;;;;;;1.47;1.47;;;;;;;;;;4944522;29;20309;-58
2022/05/31 01:37:50;;;;;;;1.30;1.30;;;;;;;;;;4938031;29;20211;-57
2022/05/31 01:40:44;;;;;;;1.47;1.40;;;;;;;;;;4938554;29;20265;-57
2022/05/31 01:43:31;;;;;;;1.40;1.40;;;;;;;;;;4940680;28;20783;-57
2022/05/31 01:46:23;;;;;;;1.40;1.40;;;;;;;;;;4942103;28;20297;-58
2022/05/31 01:49:13;;;;;;;1.60;1.50;;;;;;;;;;4936009;28;20677;-57
2022/05/31 01:52:01;;;;;;;1.30;1.30;;;;;;;;;;4945427;28;20217;-57
2022/05/31 01:54:50;;;;;;;1.50;1.50;;;;;;;;;;4941360;28;20203;-58
2022/05/31 01:57:40;;;;;;;1.17;1.17;;;;;;;;;;4939570;28;20240;-58
2022/05/31 02:00:27;;;;;;;1.73;1.73;;;;;;;;;;4944503;29;20321;-57
2022/05/31 02:03:16;;;;;;;1.80;1.70;;;;;;;;;;4945425;28;20217;-57
2022/05/31 02:06:02;;;;;;;1.30;1.30;;;;;;;;;;4943124;28;20678;-58
2022/05/31 02:08:49;;;;;;;1.10;1.10;;;;;;;;;;4944608;28;20288;-57
2022/05/31 02:11:39;;;;;;;1.40;1.40;;;;;;;;;;4944080;29;20280;-59
2022/05/31 02:14:26;;;;;;;1.20;1.20;;;;;;;;;;4941190;28;20296;-58
2022/05/31 02:17:13;;;;;;;1.27;1.27;;;;;;;;;;4943941;28;20297;-57
2022/05/31 02:20:00;;;;;;;1.50;1.50;;;;;;;;;;4947402;28;20678;-58
2022/05/31 02:22:47;;;;;;;1.40;1.40;;;;;;;;;;4948035;28;20687;-58
2022/05/31 02:25:34;;;;;;;1.20;1.20;;;;;;;;;;4946969;28;20224;-58
2022/05/31 02:28:23;;;;;;;1.20;1.20;;;;;;;;;;4940235;29;20293;-58
2022/05/31 02:31:10;;;;;;;1.40;1.40;;;;;;;;;;4942568;29;20218;-58
2022/05/31 02:33:57;;;;;;;0.90;0.90;;;;;;;;;;4946269;29;20301;-58
2022/05/31 02:36:44;;;;;;;1.20;1.20;;;;;;;;;;4949392;28;20245;-57
2022/05/31 02:39:32;;;;;;;1.17;1.17;;;;;;;;;;4939928;29;20217;-58
2022/05/31 02:42:19;;;;;;;1.33;1.33;;;;;;;;;;4944005;28;20293;-58
2022/05/31 02:45:08;;;;;;;1.20;1.20;;;;;;;;;;4945549;29;20364;-58
2022/05/31 02:47:56;;;;;;;1.20;1.20;;;;;;;;;;4941292;28;20266;-58
2022/05/31 02:50:43;;;;;;;1.17;1.17;;;;;;;;;;4945726;29;20215;-58
2022/05/31 02:53:30;;;;;;;1.33;1.33;;;;;;;;;;4947715;28;20680;-58
2022/05/31 02:56:17;;;;;;;1.20;1.20;;;;;;;;;;4942920;28;20214;-58
2022/05/31 02:59:05;;;;;;;1.10;1.10;;;;;;;;;;4938747;29;20279;-58
2022/05/31 03:01:53;;;;;;;1.10;1.10;;;;;;;;;;4946181;28;20239;-57
2022/05/31 03:04:41;;;;;;;1.20;1.20;;;;;;;;;;4949516;29;20316;-58
2022/05/31 03:07:28;;;;;;;1.10;1.10;;;;;;;;;;4942808;29;20685;-58
2022/05/31 03:10:15;;;;;;;1.17;1.17;;;;;;;;;;4947769;28;20299;-57
2022/05/31 03:13:02;;;;;;;1.30;1.30;;;;;;;;;;4942314;29;20247;-58
2022/05/31 03:15:50;;;;;;;1.40;1.40;;;;;;;;;;4942222;28;20217;-59
2022/05/31 03:18:41;;;;;;;1.30;1.30;;;;;;;;;;4940272;28;20832;-57
2022/05/31 03:21:36;;;;;;;1.30;1.30;;;;;;;;;;4947011;29;20675;-58
2022/05/31 03:24:28;;;;;;;1.20;1.20;;;;;;;;;;4947245;28;20230;-58
2022/05/31 03:27:15;;;;;;;1.33;1.33;;;;;;;;;;4944884;28;20281;-58
2022/05/31 03:30:03;;;;;;;1.23;1.23;;;;;;;;;;4947195;28;20218;-58
2022/05/31 03:32:52;;;;;;;1.13;1.13;;;;;;;;;;4944014;29;20213;-57
2022/05/31 03:35:40;;;;;;;1.30;1.30;;;;;;;;;;4948313;28;20347;-57
2022/05/31 03:38:27;;;;;;;1.10;1.10;;;;;;;;;;4945921;29;20600;-58
2022/05/31 03:41:14;;;;;;;1.20;1.20;;;;;;;;;;4944699;28;20689;-57
2022/05/31 03:44:01;;;;;;;1.40;1.40;;;;;;;;;;4949071;28;20308;-58
2022/05/31 03:46:48;;;;;;;1.30;1.30;;;;;;;;;;4946499;29;20253;-57
2022/05/31 03:49:35;;;;;;;1.13;1.13;;;;;;;;;;4945759;29;20290;-58
2022/05/31 03:52:24;;;;;;;1.40;1.40;;;;;;;;;;4935908;29;20223;-58
2022/05/31 03:55:11;;;;;;;1.20;1.20;;;;;;;;;;4944999;28;20806;-58
2022/05/31 03:57:58;;;;;;;1.27;1.27;;;;;;;;;;4945425;29;20208;-57
2022/05/31 04:00:46;;;;;;;1.37;1.37;;;;;;;;;;4944980;28;20240;-57
2022/05/31 04:03:33;;;;;;;1.30;1.30;;;;;;;;;;4945817;28;20350;-58
2022/05/31 04:06:20;;;;;;;1.33;1.33;;;;;;;;;;4941256;28;20326;-57
2022/05/31 04:09:09;;;;;;;1.20;1.20;;;;;;;;;;4945892;28;20246;-58
2022/05/31 04:11:57;;;;;;;1.50;1.50;;;;;;;;;;4935457;29;20248;-58
2022/05/31 04:14:44;;;;;;;1.60;1.60;;;;;;;;;;4941313;29;20200;-58
2022/05/31 04:17:31;;;;;;;1.57;1.57;;;;;;;;;;4943240;28;20293;-58
2022/05/31 04:20:18;;;;;;;1.27;1.27;;;;;;;;;;4940755;28;20696;-58
2022/05/31 04:26:11;;;;;;;1.40;1.40;;;;;;;;;;4940687;29;20230;-58
2022/05/31 04:28:59;;;;;;;1.50;1.50;;;;;;;;;;4944389;29;20295;-57
2022/05/31 04:31:48;;;;;;;1.60;1.53;;;;;;;;;;4939360;28;20288;-58
2022/05/31 04:34:35;;;;;;;1.57;1.57;;;;;;;;;;4942466;28;20244;-58
2022/05/31 04:37:22;;;;;;;1.60;1.53;;;;;;;;;;4938567;29;20923;-58
2022/05/31 04:40:11;;;;;;;1.73;1.73;;;;;;;;;;4942921;28;20238;-57
2022/05/31 04:42:59;;;;;;;1.70;1.70;;;;;;;;;;4939643;29;20673;-58
2022/05/31 04:45:46;;;;;;;1.70;1.70;;;;;;;;;;4937301;29;20279;-58
2022/05/31 04:48:33;;;;;;;1.60;1.60;;;;;;;;;;4945007;28;20204;-57
2022/05/31 04:51:20;;;;;;;1.53;1.53;;;;;;;;;;4946228;28;20219;-57
2022/05/31 04:54:08;;;;;;;1.60;1.50;;;;;;;;;;4941146;28;20678;-57
2022/05/31 04:56:54;;;;;;;1.80;1.80;;;;;;;;;;4940660;28;20337;-58
2022/05/31 04:59:43;;;;;;;1.60;1.60;;;;;;;;;;4938475;29;20822;-58
2022/05/31 05:02:30;;;;;;;1.67;1.67;;;;;;;;;;4940782;28;20207;-58
2022/05/31 05:05:17;;;;;;;1.80;1.70;;;;;;;;;;4939318;28;20231;-57
2022/05/31 05:08:05;;;;;;;1.60;1.60;;;;;;;;;;4943266;28;20695;-57
2022/05/31 05:10:51;;;;;;;1.80;1.80;;;;;;;;;;4939613;29;20779;-58
2022/05/31 05:13:39;;;;;;;1.40;1.40;;;;;;;;;;4941530;28;20244;-58
2022/05/31 05:16:28;;;;;;;1.90;1.90;;;;;;;;;;4938299;29;20210;-58
2022/05/31 05:19:16;;;;;;;1.50;1.50;;;;;;;;;;4939091;29;20802;-58
2022/05/31 05:22:04;;;;;;;1.40;1.40;;;;;;;;;;4939734;28;20219;-58
2022/05/31 05:24:50;;;;;;;1.53;1.53;;;;;;;;;;4945792;28;20219;-58
2022/05/31 05:27:37;;;;;;;1.53;1.53;;;;;;;;;;4943000;28;20286;-58
2022/05/31 05:30:39;;;;;;;1.80;1.80;;;;;;;;;;4940416;28;20709;-57
2022/05/31 05:33:28;;;;;;;1.50;1.50;;;;;;;;;;4946753;28;20677;-58
2022/05/31 05:36:15;;;;;;;1.80;1.80;;;;;;;;;;4940048;28;20208;-57
2022/05/31 05:39:02;;;;;;;1.90;1.80;;;;;;;;;;4944323;28;20240;-58
2022/05/31 05:41:49;;;;;;;1.70;1.60;;;;;;;;;;4945295;28;20682;-57
2022/05/31 05:44:36;;;;;;;1.60;1.60;;;;;;;;;;4946378;28;20236;-57
2022/05/31 05:47:23;;;;;;;1.67;1.57;;;;;;;;;;4948331;28;20287;-58
2022/05/31 05:50:12;;;;;;;1.60;1.60;;;;;;;;;;4943213;29;20294;-68
2022/05/31 05:53:01;;;;;;;1.47;1.47;;;;;;;;;;4949664;28;20657;-58
2022/05/31 05:55:48;;;;;;;1.90;1.90;;;;;;;;;;4946149;28;20245;-58
2022/05/31 05:58:35;;;;;;;1.90;1.80;;;;;;;;;;4948430;28;20290;-59
2022/05/31 06:01:29;;;;;;;1.77;1.73;;;;;;;;;;4944596;28;20310;-58
2022/05/31 06:04:22;;;;;;;1.63;1.53;;;;;;;;;;4949826;28;20214;-59
2022/05/31 06:07:19;;;;;;;1.70;1.70;;;;;;;;;;4947568;28;20208;-58
2022/05/31 06:10:12;;;;;;;1.90;1.80;;;;;;;;;;4946436;28;20254;-57
2022/05/31 06:13:03;;;;;;;1.67;1.67;;;;;;;;;;4943514;28;20273;-58
2022/05/31 06:15:51;;;;;;;1.60;1.60;;;;;;;;;;4943807;29;20294;-58
2022/05/31 06:18:44;;;;;;;1.90;1.80;;;;;;;;;;4944285;28;20244;-58
2022/05/31 06:21:31;;;;;;;2.00;1.90;;;;;;;;;;4945867;29;20221;-58
2022/05/31 06:24:20;;;;;;;1.57;1.57;;;;;;;;;;4943545;29;20354;-57
2022/05/31 06:27:07;;;;;;;1.83;1.83;;;;;;;;;;4944316;29;20250;-57
2022/05/31 06:29:54;;;;;;;1.97;1.87;;;;;;;;;;4942517;29;20340;-57
2022/05/31 06:32:41;;;;;;;1.80;1.80;;;;;;;;;;4947009;28;20696;-58
2022/05/31 06:35:28;;;;;;;1.80;1.80;;;;;;;;;;4949292;28;20212;-58
2022/05/31 06:38:16;;;;;;;1.97;1.87;;;;;;;;;;4940004;29;20302;-58
2022/05/31 06:41:05;;;;;;;2.20;2.10;;;;;;;;;;4944507;28;20619;-58
2022/05/31 06:43:52;;;;;;;2.00;2.00;;;;;;;;;;4945925;28;20676;-58
2022/05/31 06:46:39;;;;;;;1.90;1.90;;;;;;;;;;4947061;28;20260;-58
2022/05/31 06:49:26;;;;;;;2.20;2.10;;;;;;;;;;4940739;28;20345;-58
2022/05/31 06:58:38;;;;;;;1.73;1.67;;;;;;;;;;4931678;29;20849;-57
2022/05/31 07:01:31;;;;;;;2.20;2.10;;;;;;;;;;4944226;28;20649;-58
2022/05/31 07:04:17;;;;;;;2.17;2.07;;;;;;;;;;4945552;28;20331;-58
2022/05/31 07:07:05;;;;;;;2.07;1.97;;;;;;;;;;4944281;29;20623;-58
2022/05/31 07:09:53;;;;;;;1.80;1.80;;;;;;;;;;4946387;28;20292;-62
2022/05/31 07:12:41;;;;;;;1.87;1.87;;;;;;;;;;4941819;28;20981;-58
2022/05/31 07:15:31;;;;;;;1.83;1.83;;;;;;;;;;4943354;28;20670;-59
2022/05/31 07:18:18;;;;;;;1.93;1.83;;;;;;;;;;4947531;28;20241;-58
2022/05/31 07:21:05;;;;;;;1.97;1.87;;;;;;;;;;4952246;29;20213;-58
2022/05/31 07:23:53;;;;;;;1.90;1.80;;;;;;;;;;4945721;28;20303;-56
2022/05/31 07:26:40;;;;;;;1.95;1.67;;;;;;;;;;4944257;28;20596;-56
2022/05/31 07:29:28;;;;;;;1.88;1.88;;;;;;;;;;4938838;29;20302;-55
2022/05/31 07:32:16;;;;;;;1.60;1.60;;;;;;;;;;4943024;28;20661;-55
2022/05/31 07:35:03;;;;;;;1.60;1.60;;;;;;;;;;4942220;28;20230;-55
2022/05/31 07:37:50;;;;;;;1.58;1.58;;;;;;;;;;4946234;28;20264;-55
2022/05/31 07:40:38;;;;;;;1.70;1.70;;;;;;;;;;4942854;28;20726;-55
2022/05/31 07:43:25;;;;;;;1.70;1.70;;;;;;;;;;4946203;28;20215;-55
2022/05/31 07:46:13;;;;;;;1.60;1.60;;;;;;;;;;4941865;29;20330;-55
2022/05/31 07:49:01;;;;;;;1.38;1.38;;;;;;;;;;4944265;28;20208;-56
2022/05/31 07:51:49;;;;;;;1.52;1.52;;;;;;;;;;4943595;28;20676;-55
2022/05/31 07:54:36;;;;;;;1.70;1.70;;;;;;;;;;4943759;28;20248;-56
2022/05/31 08:00:28;;;;;;;1.50;1.50;;;;;;;;;;4944199;28;20230;-55
2022/05/31 08:03:14;;;;;;;1.38;1.38;;;;;;;;;;4947668;28;20226;-56
2022/05/31 08:06:09;;;;;;;1.90;1.80;;;;;;;;;;4939001;28;20703;-55
2022/05/31 08:08:57;;;;;;;1.50;1.50;;;;;;;;;;4939552;28;20298;-55
2022/05/31 08:11:44;;;;;;;1.50;1.50;;;;;;;;;;4943650;29;20621;-55
2022/05/31 08:14:31;;;;;;;1.55;1.55;;;;;;;;;;4942473;28;20207;-56
2022/05/31 08:17:17;;;;;;;1.40;1.40;;;;;;;;;;4941282;28;20200;-56
2022/05/31 08:20:06;;;;;;;1.50;1.45;;;;;;;;;;4941069;29;20290;-55
2022/05/31 08:22:55;;;;;;;1.65;1.65;;;;;;;;;;4941270;29;20319;-56
2022/05/31 08:25:42;;;;;;;1.38;1.38;;;;;;;;;;4943420;28;20239;-56
2022/05/31 08:28:30;;;;;;;1.27;1.27;;;;;;;;;;4943300;28;20605;-55
2022/05/31 08:31:23;;;;;;;1.58;1.48;;;;;;;;;;4946724;29;20211;-56
2022/05/31 08:34:12;;;;;;;1.42;1.42;;;;;;;;;;4944560;28;20242;-55
2022/05/31 08:37:00;;;;;;;1.23;1.23;;;;;;;;;;4944240;28;20341;-56
2022/05/31 08:39:48;;;;;;;1.60;1.60;;;;;;;;;;4944080;28;20216;-56
2022/05/31 08:42:51;;;;;;;1.30;1.30;;;;;;;;;;4941441;28;20208;-57
2022/05/31 08:45:45;;;;;;;1.15;1.15;;;;;;;;;;4944124;28;20246;-55
2022/05/31 08:48:34;;;;;;;1.60;1.60;;;;;;;;;;4947931;29;20216;-56
2022/05/31 08:57:47;;;;;;;1.60;1.58;;;;;;;;;;4942739;28;20215;-57
2022/05/31 09:00:38;;;;;;;1.52;1.48;;;;;;;;;;4941355;29;20232;-57
2022/05/31 09:03:30;;;;;;;1.50;1.50;;;;;;;;;;4948281;28;20214;-57
2022/05/31 09:06:21;;;;;;;1.40;1.40;;;;;;;;;;4947594;28;20710;-57
2022/05/31 09:09:14;;;;;;;1.23;1.23;;;;;;;;;;4943122;28;20218;-57
2022/05/31 09:12:04;;;;;;;1.30;1.30;;;;;;;;;;4942335;29;20254;-57
2022/05/31 09:15:01;;;;;;;1.30;1.30;;;;;;;;;;4942425;29;20230;-57
2022/05/31 09:18:03;;;;;;;1.40;1.40;;;;;;;;;;4945120;29;20227;-57
2022/05/31 09:20:54;;;;;;;1.33;1.33;;;;;;;;;;4943693;28;20291;-58
2022/05/31 09:23:41;;;;;;;1.13;1.13;;;;;;;;;;4945850;29;20270;-57
2022/05/31 09:27:00;;;;;;;1.40;1.40;;;;;;;;;;4944786;28;20238;-57
2022/05/31 09:30:08;;;;;;;1.20;1.20;;;;;;;;;;4944124;28;20216;-57
2022/05/31 09:33:06;;;;;;;1.10;1.10;;;;;;;;;;4946697;28;20215;-58
2022/05/31 09:36:21;;;;;;;1.17;1.17;;;;;;;;;;4942226;29;20225;-57
2022/05/31 09:39:30;;;;;;;1.10;1.10;;;;;;;;;;4940146;29;20216;-57
2022/05/31 09:42:22;;;;;;;1.17;1.17;;;;;;;;;;4947552;28;20208;-57
2022/05/31 09:45:18;;;;;;;1.20;1.20;;;;;;;;;;4939797;29;20237;-56
2022/05/31 09:48:06;;;;;;;1.17;1.17;;;;;;;;;;4943701;28;20210;-57
2022/05/31 09:50:58;;;;;;;1.05;1.02;;;;;;;;;;4941488;28;20733;-56
2022/05/31 09:57:06;;;;;;;1.10;1.10;;;;;;;;;;4946714;29;20220;-57
2022/05/31 10:00:03;;;;;;;0.82;0.82;;;;;;;;;;4941840;29;20215;-56
2022/05/31 10:03:16;;;;;;;1.05;1.05;;;;;;;;;;4954005;28;20286;-57
2022/05/31 10:06:17;;;;;;;0.80;0.80;;;;;;;;;;4944081;28;20243;-57
2022/05/31 10:09:16;;;;;;;1.05;1.05;;;;;;;;;;4946311;28;20212;-56
2022/05/31 10:12:15;;;;;;;0.90;0.90;;;;;;;;;;4948133;28;20239;-58
2022/05/31 10:15:06;;;;;;;1.00;1.00;;;;;;;;;;4942123;29;20227;-65
2022/05/31 10:18:01;;;;;;;0.80;0.80;;;;;;;;;;4949091;28;20211;-56
2022/05/31 10:20:58;;;;;;;1.08;1.08;;;;;;;;;;4942217;29;20313;-57
2022/05/31 10:23:46;;;;;;;0.90;0.90;;;;;;;;;;4949800;28;20206;-57
2022/05/31 10:26:38;;;;;;;0.80;0.80;;;;;;;;;;4942222;29;20234;-57
2022/05/31 10:29:29;;;;;;;1.10;1.10;;;;;;;;;;4943119;28;20931;-57
2022/05/31 10:32:27;;;;;;;0.90;0.90;;;;;;;;;;4940090;28;20207;-57
2022/05/31 10:35:16;;;;;;;0.90;0.90;;;;;;;;;;4945407;29;20210;-57
2022/05/31 10:38:10;;;;;;;0.95;0.95;;;;;;;;;;4944516;29;20204;-57
2022/05/31 10:41:01;;;;;;;0.75;0.75;;;;;;;;;;4942308;29;20214;-56
2022/05/31 10:43:52;;;;;;;0.93;0.90;;;;;;;;;;4942196;29;20666;-57
2022/05/31 10:46:40;;;;;;;0.98;0.98;;;;;;;;;;4938827;28;20598;-57
2022/05/31 10:49:28;;;;;;;1.08;1.08;;;;;;;;;;4946745;28;20575;-57
2022/05/31 10:52:22;;;;;;;1.00;1.00;;;;;;;;;;4941751;28;20547;-57
2022/05/31 10:55:36;;;;;;;0.82;0.82;;;;;;;;;;4942720;28;20243;-56
2022/05/31 10:58:46;;;;;;;0.90;0.90;;;;;;;;;;4946043;29;20577;-57
2022/05/31 11:01:49;;;;;;;0.95;0.90;;;;;;;;;;4942647;29;20277;-57
2022/05/31 11:04:52;;;;;;;0.85;0.85;;;;;;;;;;4945245;28;20203;-57
2022/05/31 11:14:22;;;;;;;0.98;0.98;;;;;;;;;;4949957;28;20217;-57
2022/05/31 11:17:29;;;;;;;0.70;0.70;;;;;;;;;;4943642;28;20283;-58
2022/05/31 11:20:21;;;;;;;0.85;0.85;;;;;;;;;;4943309;28;20227;-57
2022/05/31 11:23:29;;;;;;;0.70;0.70;;;;;;;;;;4945677;29;20694;-57
2022/05/31 11:26:31;;;;;;;0.70;0.68;;;;;;;;;;4947430;29;20713;-56
2022/05/31 11:29:50;;;;;;;0.73;0.73;;;;;;;;;;4942993;29;20211;-57
2022/05/31 11:32:53;;;;;;;0.70;0.70;;;;;;;;;;4950791;28;20214;-56
2022/05/31 11:35:52;;;;;;;0.90;0.90;;;;;;;;;;4947645;28;20217;-57
2022/05/31 11:38:50;;;;;;;0.68;0.68;;;;;;;;;;4949248;28;20216;-57
2022/05/31 11:41:48;;;;;;;0.85;0.85;;;;;;;;;;4947251;28;20677;-56
2022/05/31 11:44:59;;;;;;;0.77;0.77;;;;;;;;;;4943237;28;20221;-56
2022/05/31 11:48:13;;;;;;;0.77;0.77;;;;;;;;;;4942752;29;20235;-57
2022/05/31 11:51:12;;;;;;;0.60;0.60;;;;;;;;;;4941140;29;20208;-56
2022/05/31 11:54:19;;;;;;;0.80;0.80;;;;;;;;;;4945664;29;20202;-57
2022/05/31 11:57:21;;;;;;;0.70;0.70;;;;;;;;;;4942090;29;20206;-57
2022/05/31 12:00:11;;;;;;;0.67;0.67;;;;;;;;;;4947594;28;20214;-57
2022/05/31 12:03:07;;;;;;;0.80;0.80;;;;;;;;;;4944369;28;20239;-61
2022/05/31 12:06:00;;;;;;;0.70;0.70;;;;;;;;;;4946102;29;20209;-57
2022/05/31 12:08:51;;;;;;;0.70;0.70;;;;;;;;;;4943039;29;20211;-57
2022/05/31 12:11:42;;;;;;;0.67;0.67;;;;;;;;;;4943328;28;20239;-57
2022/05/31 12:14:32;;;;;;;1.00;1.00;;;;;;;;;;4946873;28;20587;-57
2022/05/31 12:17:22;;;;;;;0.60;0.60;;;;;;;;;;4942853;28;20203;-57
2022/05/31 12:20:19;;;;;;;0.70;0.70;;;;;;;;;;4940278;29;20207;-57
2022/05/31 12:23:15;;;;;;;0.60;0.60;;;;;;;;;;4944148;28;20674;-57
2022/05/31 12:26:15;;;;;;;0.50;0.50;;;;;;;;;;4939559;28;20222;-57
2022/05/31 12:29:13;;;;;;;0.50;0.50;;;;;;;;;;4943637;28;20222;-57
2022/05/31 12:32:31;;;;;;;0.60;0.60;;;;;;;;;;4940278;28;20647;-56
2022/05/31 12:35:53;;;;;;;0.60;0.60;;;;;;;;;;4939453;29;20217;-57
2022/05/31 12:39:04;;;;;;;0.87;0.87;;;;;;;;;;4944150;29;20271;-57
2022/05/31 12:41:52;;;;;;;0.80;0.80;;;;;;;;;;4942270;29;20210;-57
2022/05/31 12:44:41;;;;;;;0.60;0.60;;;;;;;;;;4943053;28;20205;-56
2022/05/31 12:47:33;;;;;;;1.40;0.70;;;;;;;;;;4941537;29;20311;-56
2022/05/31 12:50:46;;;;;;;0.63;0.63;;;;;;;;;;4945716;28;20289;-56
2022/05/31 12:53:56;;;;;;;0.70;0.70;;;;;;;;;;4937946;29;20213;-57
2022/05/31 12:57:19;;;;;;;0.60;0.60;;;;;;;;;;4941512;28;20710;-57
2022/05/31 13:00:08;;;;;;;0.50;0.50;;;;;;;;;;4942021;28;20214;-57
2022/05/31 13:02:57;;;;;;;0.60;0.60;;;;;;;;;;4943419;28;20222;-57
2022/05/31 13:05:59;;;;;;;0.50;0.50;;;;;;;;;;4944860;29;20543;-56
2022/05/31 13:08:55;;;;;;;0.60;0.60;;;;;;;;;;4943321;28;20213;-57
2022/05/31 13:21:29;;;;;;;0.50;0.50;;;;;;;;;;4947588;28;20280;-57
2022/05/31 13:24:19;;;;;;;0.70;0.70;;;;;;;;;;4947696;28;20218;-57
2022/05/31 13:27:07;;;;;;;0.37;0.37;;;;;;;;;;4944473;28;20244;-57
2022/05/31 13:30:11;;;;;;;0.60;0.60;;;;;;;;;;4942253;28;20676;-57
2022/05/31 13:32:59;;;;;;;0.50;0.50;;;;;;;;;;4940687;28;20743;-57
2022/05/31 13:35:56;;;;;;;0.60;0.57;;;;;;;;;;4937654;29;20217;-57
2022/05/31 13:38:46;;;;;;;0.50;0.50;;;;;;;;;;4943484;28;20210;-57
2022/05/31 13:41:33;;;;;;;0.40;0.40;;;;;;;;;;4941861;29;20674;-57
2022/05/31 13:44:23;;;;;;;0.50;0.50;;;;;;;;;;4941815;28;20209;-56
2022/05/31 13:47:17;;;;;;;0.50;0.50;;;;;;;;;;4939912;28;20632;-56
2022/05/31 13:50:08;;;;;;;0.50;0.50;;;;;;;;;;4938427;28;20669;-57
2022/05/31 13:52:56;;;;;;;0.60;0.60;;;;;;;;;;4937151;28;20216;-57
2022/05/31 13:55:43;;;;;;;0.43;0.30;;;;;;;;;;4939220;29;20215;-57
2022/05/31 13:58:34;;;;;;;0.77;0.77;;;;;;;;;;4939897;28;20215;-57
2022/05/31 14:01:27;;;;;;;0.33;0.33;;;;;;;;;;4937852;29;20238;-58
2022/05/31 14:04:19;;;;;;;0.50;0.50;;;;;;;;;;4942873;28;20581;-57
2022/05/31 14:07:11;;;;;;;0.57;0.57;;;;;;;;;;4946832;28;20322;-57
2022/05/31 14:10:01;;;;;;;0.40;0.40;;;;;;;;;;4944153;28;20359;-57
2022/05/31 14:12:49;;;;;;;0.40;0.40;;;;;;;;;;4940633;29;20217;-57
2022/05/31 14:15:37;;;;;;;0.53;0.50;;;;;;;;;;4939169;28;20204;-58
2022/05/31 14:18:24;;;;;;;0.40;0.40;;;;;;;;;;4941215;29;20275;-57
2022/05/31 14:21:12;;;;;;;0.60;0.60;;;;;;;;;;4944713;28;20218;-58
2022/05/31 14:23:59;;;;;;;0.47;0.47;;;;;;;;;;4944469;29;20578;-58
2022/05/31 14:26:49;;;;;;;0.60;0.60;;;;;;;;;;4946835;28;20219;-59
2022/05/31 14:29:38;;;;;;;0.50;0.50;;;;;;;;;;4943118;28;20224;-61
2022/05/31 14:32:29;;;;;;;0.50;0.50;;;;;;;;;;4947281;28;20207;-58
2022/05/31 14:35:22;;;;;;;0.43;0.43;;;;;;;;;;4945898;29;20236;-58
2022/05/31 14:38:15;;;;;;;0.40;0.40;;;;;;;;;;4950022;28;20206;-57
2022/05/31 14:41:05;;;;;;;0.50;0.50;;;;;;;;;;4948632;28;20224;-58
2022/05/31 14:43:56;;;;;;;0.60;0.60;;;;;;;;;;4947308;28;20608;-58
2022/05/31 14:46:43;;;;;;;0.50;0.50;;;;;;;;;;4946237;29;20226;-58
2022/05/31 14:49:30;;;;;;;0.50;0.50;;;;;;;;;;4942626;28;20600;-57
2022/05/31 14:52:20;;;;;;;0.40;0.40;;;;;;;;;;4946486;28;20209;-57
2022/05/31 14:55:14;;;;;;;0.40;0.40;;;;;;;;;;4945707;29;20214;-58
2022/05/31 15:01:24;;;;;;;0.40;0.40;;;;;;;;;;4939675;29;20715;-57
2022/05/31 15:04:16;;;;;;;0.40;0.40;;;;;;;;;;4951333;28;20215;-58
2022/05/31 15:07:07;;;;;;;0.57;0.50;;;;;;;;;;4948104;28;20347;-57
2022/05/31 15:10:12;;;;;;;0.63;0.63;;;;;;;;;;4946069;28;20214;-58
2022/05/31 15:19:12;;;;;;;0.70;0.70;;;;;;;;;;4942046;29;20206;-57
2022/05/31 15:21:59;;;;;;;0.40;0.40;;;;;;;;;;4939839;29;20210;-57
2022/05/31 15:24:49;;;;;;;0.50;0.50;;;;;;;;;;4946923;28;20246;-57
2022/05/31 15:27:38;;;;;;;0.50;0.50;;;;;;;;;;4937219;28;20242;-58
2022/05/31 15:30:25;;;;;;;0.60;0.60;;;;;;;;;;4943202;29;20209;-57
2022/05/31 15:33:12;;;;;;;0.60;0.60;;;;;;;;;;4948667;28;20268;-57
2022/05/31 15:36:00;;;;;;;0.40;0.40;;;;;;;;;;4940857;28;20674;-57
2022/05/31 15:38:48;;;;;;;0.60;0.60;;;;;;;;;;4944410;28;20216;-57
2022/05/31 15:41:37;;;;;;;0.40;0.40;;;;;;;;;;4947183;28;20578;-57
2022/05/31 15:44:24;;;;;;;0.73;0.57;;;;;;;;;;4943803;28;20244;-58
2022/05/31 15:47:12;;;;;;;0.63;0.63;;;;;;;;;;4944331;28;20681;-58
2022/05/31 15:49:59;;;;;;;0.60;0.53;;;;;;;;;;4943884;28;20215;-57
2022/05/31 15:52:48;;;;;;;0.60;0.60;;;;;;;;;;4937591;28;20654;-58
2022/05/31 15:55:35;;;;;;;0.60;0.60;;;;;;;;;;4945405;29;20216;-57
2022/05/31 15:58:22;;;;;;;0.60;0.60;;;;;;;;;;4939907;29;20208;-58
2022/05/31 16:01:09;;;;;;;0.60;0.60;;;;;;;;;;4945314;28;20223;-57
2022/05/31 16:03:56;;;;;;;0.60;0.60;;;;;;;;;;4948771;28;20210;-57
2022/05/31 16:06:43;;;;;;;0.60;0.60;;;;;;;;;;4942409;28;20210;-57
2022/05/31 16:09:33;;;;;;;0.60;0.60;;;;;;;;;;4946107;28;20775;-57
2022/05/31 16:12:22;;;;;;;0.70;0.70;;;;;;;;;;4940992;29;20229;-58
2022/05/31 16:15:10;;;;;;;0.40;0.40;;;;;;;;;;4943932;28;20209;-57
2022/05/31 16:17:57;;;;;;;0.40;0.40;;;;;;;;;;4944339;28;20690;-58
2022/05/31 16:20:44;;;;;;;0.80;0.80;;;;;;;;;;4946678;28;20215;-57
2022/05/31 16:23:31;;;;;;;1.00;1.00;;;;;;;;;;4945548;28;20222;-57
2022/05/31 16:26:20;;;;;;;0.60;0.60;;;;;;;;;;4940906;29;20223;-58
2022/05/31 16:29:10;;;;;;;0.57;0.57;;;;;;;;;;4944702;28;20729;-58
2022/05/31 16:31:57;;;;;;;0.67;0.67;;;;;;;;;;4942093;28;20202;-58
2022/05/31 16:34:44;;;;;;;0.60;0.60;;;;;;;;;;4944918;28;20936;-57
2022/05/31 16:43:44;;;;;;;0.63;0.63;;;;;;;;;;4950257;28;20230;-57
2022/05/31 16:46:32;;;;;;;0.60;0.60;;;;;;;;;;4940332;28;20304;-57
2022/05/31 16:49:19;;;;;;;0.70;0.70;;;;;;;;;;4945975;29;20679;-57
2022/05/31 16:52:07;;;;;;;0.70;0.70;;;;;;;;;;4941527;29;20240;-58
2022/05/31 16:54:54;;;;;;;0.77;0.77;;;;;;;;;;4942271;29;20210;-57
2022/05/31 16:57:42;;;;;;;0.70;0.70;;;;;;;;;;4944583;28;20210;-57
2022/05/31 17:00:30;;;;;;;0.60;0.60;;;;;;;;;;4942280;28;20230;-57
2022/05/31 17:03:17;;;;;;;0.50;0.50;;;;;;;;;;4945570;28;20214;-58
2022/05/31 17:06:05;;;;;;;1.17;0.70;;;;;;;;;;4938606;28;20222;-57
2022/05/31 17:15:01;;;;;;;0.80;0.80;;;;;;;;;;4940771;28;20217;-58
2022/05/31 17:17:49;;;;;;;0.57;0.57;;;;;;;;;;4942013;28;20217;-57
2022/05/31 17:20:39;;;;;;;0.70;0.70;;;;;;;;;;4941934;29;20212;-57
2022/05/31 17:23:31;;;;;;;0.70;0.70;;;;;;;;;;4944074;28;20213;-57
2022/05/31 17:26:18;;;;;;;0.80;0.80;;;;;;;;;;4941320;29;20580;-57
2022/05/31 17:29:06;;;;;;;0.60;0.60;;;;;;;;;;4941118;29;20232;-57
2022/05/31 17:31:53;;;;;;;0.60;0.60;;;;;;;;;;4941930;28;20215;-57
2022/05/31 17:34:41;;;;;;;0.70;0.70;;;;;;;;;;4942597;29;20216;-57
2022/05/31 17:37:28;;;;;;;0.70;0.70;;;;;;;;;;4942382;28;20212;-57
2022/05/31 17:40:15;;;;;;;0.60;0.60;;;;;;;;;;4944934;29;20211;-57
2022/05/31 17:43:02;;;;;;;1.10;0.60;;;;;;;;;;4943158;29;20744;-57
2022/05/31 17:45:50;;;;;;;1.00;0.90;;;;;;;;;;4945251;29;20224;-57
2022/05/31 17:48:37;;;;;;;0.80;0.80;;;;;;;;;;4949750;29;20232;-58
2022/05/31 17:51:30;;;;;;;0.60;0.60;;;;;;;;;;4947832;29;20220;-58
2022/05/31 17:54:22;;;;;;;0.90;0.90;;;;;;;;;;4947965;29;20215;-57
2022/05/31 17:57:10;;;;;;;0.90;0.90;;;;;;;;;;4944809;29;20303;-57
2022/05/31 17:59:57;;;;;;;0.70;0.70;;;;;;;;;;4946748;28;20327;-57
2022/05/31 18:02:44;;;;;;;0.87;0.87;;;;;;;;;;4950270;28;20228;-57
2022/05/31 18:05:31;;;;;;;0.70;0.70;;;;;;;;;;4943199;29;20231;-58